sensor_id;sensor_type;location;lat;lon;timestamp;pressure;altitude;pressure_sealevel;temperature;humidity
63907;BME280;50075;49.484;11.238;2024-03-02T00:00:54;96877.34;;;8.70;100.00
63907;BME280;50075;49.484;11.238;2024-03-02T00:03:19;96877.16;;;8.83;100.00
63907;BME280;50075;49.484;11.238;2024-03-02T00:05:49;96872.16;;;8.70;100.00
63907;BME280;50075;49.484;11.238;2024-03-02T00:08:23;96877.34;;;8.70;100.00
63907;BME280;50075;49.484;11.238;2024-03-02T00:10:49;96872.19;;;8.69;100.00
63907;BME280;50075;49.484;11.238;2024-03-02T00:13:14;96863.94;;;9.02;100.00
63907;BME280;50075;49.484;11.238;2024-03-02T00:15:47;96860.47;;;9.03;100.00
63907;BME280;50075;49.484;11.238;2024-03-02T00:20:55;96867.28;;;9.08;100.00
63907;BME280;50075;49.484;11.238;2024-03-02T00:23:22;96859.63;;;9.01;100.00
63907;BME280;50075;49.484;11.238;2024-03-02T00:25:52;96863.56;;;8.65;100.00
63907;BME280;50075;49.484;11.238;2024-03-02T00:28:25;96856.56;;;8.72;100.00
63907;BME280;50075;49.484;11.238;2024-03-02T00:31:08;96857.09;;;8.96;100.00
63907;BME280;50075;49.484;11.238;2024-03-02T00:33:41;96859.31;;;9.22;100.00
63907;BME280;50075;49.484;11.238;2024-03-02T00:36:08;96862.00;;;9.13;100.00
63907;BME280;50075;49.484;11.238;2024-03-02T00:38:34;96863.81;;;9.09;100.00
63907;BME280;50075;49.484;11.238;2024-03-02T00:41:04;96861.75;;;8.72;100.00
63907;BME280;50075;49.484;11.238;2024-03-02T00:43:50;96863.81;;;8.46;100.00
63907;BME280;50075;49.484;11.238;2024-03-02T00:46:20;96860.50;;;8.99;100.00
63907;BME280;50075;49.484;11.238;2024-03-02T00:48:55;96858.94;;;8.89;100.00
63907;BME280;50075;49.484;11.238;2024-03-02T00:51:25;96862.44;;;8.85;100.00
63907;BME280;50075;49.484;11.238;2024-03-02T00:53:57;96861.16;;;9.14;100.00
63907;BME280;50075;49.484;11.238;2024-03-02T00:56:25;96857.47;;;8.71;100.00
63907;BME280;50075;49.484;11.238;2024-03-02T00:58:51;96862.41;;;8.88;100.00
63907;BME280;50075;49.484;11.238;2024-03-02T01:01:17;96861.69;;;8.78;100.00
63907;BME280;50075;49.484;11.238;2024-03-02T01:03:43;96862.97;;;8.44;100.00
63907;BME280;50075;49.484;11.238;2024-03-02T01:06:09;96861.22;;;8.45;100.00
63907;BME280;50075;49.484;11.238;2024-03-02T01:08:35;96861.34;;;8.36;100.00
63907;BME280;50075;49.484;11.238;2024-03-02T01:11:01;96863.25;;;8.89;100.00
63907;BME280;50075;49.484;11.238;2024-03-02T01:13:26;96864.44;;;8.66;100.00
63907;BME280;50075;49.484;11.238;2024-03-02T01:15:51;96868.81;;;8.62;100.00
63907;BME280;50075;49.484;11.238;2024-03-02T01:18:18;96869.66;;;8.63;100.00
63907;BME280;50075;49.484;11.238;2024-03-02T01:20:43;96869.31;;;8.88;100.00
63907;BME280;50075;49.484;11.238;2024-03-02T01:23:08;96871.09;;;8.85;100.00
63907;BME280;50075;49.484;11.238;2024-03-02T01:25:34;96874.34;;;9.00;100.00
63907;BME280;50075;49.484;11.238;2024-03-02T01:28:01;96869.88;;;9.10;100.00
63907;BME280;50075;49.484;11.238;2024-03-02T01:30:26;96863.97;;;9.00;100.00
63907;BME280;50075;49.484;11.238;2024-03-02T01:32:51;96861.59;;;8.83;100.00
63907;BME280;50075;49.484;11.238;2024-03-02T01:35:17;96872.28;;;8.61;100.00
63907;BME280;50075;49.484;11.238;2024-03-02T01:37:42;96866.28;;;8.57;100.00
63907;BME280;50075;49.484;11.238;2024-03-02T01:40:08;96868.25;;;8.37;100.00
63907;BME280;50075;49.484;11.238;2024-03-02T01:42:37;96868.28;;;8.99;100.00
63907;BME280;50075;49.484;11.238;2024-03-02T01:45:06;96866.06;;;8.75;100.00
63907;BME280;50075;49.484;11.238;2024-03-02T01:47:31;96868.09;;;9.10;100.00
63907;BME280;50075;49.484;11.238;2024-03-02T01:49:57;96856.66;;;8.66;100.00
63907;BME280;50075;49.484;11.238;2024-03-02T01:52:23;96854.03;;;8.69;100.00
63907;BME280;50075;49.484;11.238;2024-03-02T01:54:48;96870.69;;;9.12;100.00
63907;BME280;50075;49.484;11.238;2024-03-02T01:57:14;96853.41;;;9.13;100.00
63907;BME280;50075;49.484;11.238;2024-03-02T01:59:39;96852.38;;;8.63;100.00
63907;BME280;50075;49.484;11.238;2024-03-02T02:02:04;96861.34;;;9.02;100.00
63907;BME280;50075;49.484;11.238;2024-03-02T02:04:30;96860.97;;;9.27;100.00
63907;BME280;50075;49.484;11.238;2024-03-02T02:06:56;96866.00;;;9.36;100.00
63907;BME280;50075;49.484;11.238;2024-03-02T02:09:21;96867.69;;;9.38;100.00
63907;BME280;50075;49.484;11.238;2024-03-02T02:11:47;96868.94;;;9.66;100.00
63907;BME280;50075;49.484;11.238;2024-03-02T02:14:12;96867.25;;;9.11;100.00
63907;BME280;50075;49.484;11.238;2024-03-02T02:16:37;96870.13;;;8.91;100.00
63907;BME280;50075;49.484;11.238;2024-03-02T02:19:03;96863.91;;;9.03;100.00
63907;BME280;50075;49.484;11.238;2024-03-02T02:21:28;96869.13;;;9.02;100.00
63907;BME280;50075;49.484;11.238;2024-03-02T02:23:53;96871.56;;;9.13;100.00
63907;BME280;50075;49.484;11.238;2024-03-02T02:26:19;96869.09;;;9.03;100.00
63907;BME280;50075;49.484;11.238;2024-03-02T02:28:44;96870.44;;;8.69;100.00
63907;BME280;50075;49.484;11.238;2024-03-02T02:31:15;96867.97;;;8.62;100.00
63907;BME280;50075;49.484;11.238;2024-03-02T02:33:41;96866.72;;;8.89;100.00
63907;BME280;50075;49.484;11.238;2024-03-02T02:36:07;96870.53;;;9.21;100.00
63907;BME280;50075;49.484;11.238;2024-03-02T02:38:39;96872.03;;;8.80;100.00
63907;BME280;50075;49.484;11.238;2024-03-02T02:41:05;96867.28;;;9.10;100.00
63907;BME280;50075;49.484;11.238;2024-03-02T02:43:31;96876.78;;;9.08;100.00
63907;BME280;50075;49.484;11.238;2024-03-02T02:45:56;96874.66;;;8.77;100.00
63907;BME280;50075;49.484;11.238;2024-03-02T02:48:21;96871.72;;;9.02;100.00
63907;BME280;50075;49.484;11.238;2024-03-02T02:50:47;96870.88;;;8.99;100.00
63907;BME280;50075;49.484;11.238;2024-03-02T02:53:12;96871.63;;;9.08;100.00
63907;BME280;50075;49.484;11.238;2024-03-02T02:55:39;96868.00;;;9.18;100.00
63907;BME280;50075;49.484;11.238;2024-03-02T02:58:06;96872.03;;;9.35;100.00
63907;BME280;50075;49.484;11.238;2024-03-02T03:00:32;96867.09;;;9.21;100.00
63907;BME280;50075;49.484;11.238;2024-03-02T03:02:58;96866.28;;;9.17;100.00
63907;BME280;50075;49.484;11.238;2024-03-02T03:05:23;96866.84;;;9.35;100.00
63907;BME280;50075;49.484;11.238;2024-03-02T03:07:49;96869.97;;;9.57;100.00
63907;BME280;50075;49.484;11.238;2024-03-02T03:10:15;96872.53;;;9.59;100.00
63907;BME280;50075;49.484;11.238;2024-03-02T03:12:41;96867.53;;;9.48;100.00
63907;BME280;50075;49.484;11.238;2024-03-02T03:15:08;96868.53;;;9.39;100.00
63907;BME280;50075;49.484;11.238;2024-03-02T03:17:34;96872.38;;;9.13;100.00
63907;BME280;50075;49.484;11.238;2024-03-02T03:20:00;96866.53;;;9.02;100.00
63907;BME280;50075;49.484;11.238;2024-03-02T03:22:26;96866.88;;;8.78;100.00
63907;BME280;50075;49.484;11.238;2024-03-02T03:24:52;96867.66;;;8.83;100.00
63907;BME280;50075;49.484;11.238;2024-03-02T03:27:17;96868.38;;;8.93;100.00
63907;BME280;50075;49.484;11.238;2024-03-02T03:29:42;96875.69;;;8.66;100.00
63907;BME280;50075;49.484;11.238;2024-03-02T03:32:08;96874.50;;;8.89;100.00
63907;BME280;50075;49.484;11.238;2024-03-02T03:34:34;96868.69;;;8.71;100.00
63907;BME280;50075;49.484;11.238;2024-03-02T03:36:59;96868.66;;;8.75;100.00
63907;BME280;50075;49.484;11.238;2024-03-02T03:39:25;96872.31;;;9.19;100.00
63907;BME280;50075;49.484;11.238;2024-03-02T03:41:50;96871.81;;;8.94;100.00
63907;BME280;50075;49.484;11.238;2024-03-02T03:44:16;96878.00;;;8.85;100.00
63907;BME280;50075;49.484;11.238;2024-03-02T03:46:41;96874.56;;;8.83;100.00
63907;BME280;50075;49.484;11.238;2024-03-02T03:49:07;96878.06;;;9.38;100.00
63907;BME280;50075;49.484;11.238;2024-03-02T03:51:33;96883.81;;;9.58;100.00
63907;BME280;50075;49.484;11.238;2024-03-02T03:53:58;96880.56;;;8.88;100.00
63907;BME280;50075;49.484;11.238;2024-03-02T03:56:23;96878.44;;;9.15;100.00
63907;BME280;50075;49.484;11.238;2024-03-02T03:58:49;96875.19;;;9.01;100.00
63907;BME280;50075;49.484;11.238;2024-03-02T04:01:14;96880.78;;;8.72;100.00
63907;BME280;50075;49.484;11.238;2024-03-02T04:03:39;96873.16;;;8.58;100.00
63907;BME280;50075;49.484;11.238;2024-03-02T04:06:05;96876.59;;;8.62;100.00
63907;BME280;50075;49.484;11.238;2024-03-02T04:08:30;96871.47;;;8.56;100.00
63907;BME280;50075;49.484;11.238;2024-03-02T04:10:56;96877.53;;;8.52;100.00
63907;BME280;50075;49.484;11.238;2024-03-02T04:13:21;96876.75;;;8.46;100.00
63907;BME280;50075;49.484;11.238;2024-03-02T04:15:46;96884.50;;;8.50;100.00
63907;BME280;50075;49.484;11.238;2024-03-02T04:18:12;96883.59;;;8.52;100.00
63907;BME280;50075;49.484;11.238;2024-03-02T04:20:37;96883.47;;;8.66;100.00
63907;BME280;50075;49.484;11.238;2024-03-02T04:23:02;96878.66;;;8.98;100.00
63907;BME280;50075;49.484;11.238;2024-03-02T04:25:28;96884.28;;;8.68;100.00
63907;BME280;50075;49.484;11.238;2024-03-02T04:27:53;96889.53;;;8.64;100.00
63907;BME280;50075;49.484;11.238;2024-03-02T04:30:18;96889.31;;;8.79;100.00
63907;BME280;50075;49.484;11.238;2024-03-02T04:32:44;96886.84;;;8.70;100.00
63907;BME280;50075;49.484;11.238;2024-03-02T04:35:12;96882.72;;;8.56;100.00
63907;BME280;50075;49.484;11.238;2024-03-02T04:37:38;96890.50;;;8.55;100.00
63907;BME280;50075;49.484;11.238;2024-03-02T04:40:04;96889.84;;;8.37;100.00
63907;BME280;50075;49.484;11.238;2024-03-02T04:42:33;96897.47;;;7.68;100.00
63907;BME280;50075;49.484;11.238;2024-03-02T04:44:58;96901.13;;;7.43;100.00
63907;BME280;50075;49.484;11.238;2024-03-02T04:47:24;96904.44;;;7.60;100.00
63907;BME280;50075;49.484;11.238;2024-03-02T04:49:49;96913.25;;;7.38;100.00
63907;BME280;50075;49.484;11.238;2024-03-02T04:52:14;96914.91;;;7.46;100.00
63907;BME280;50075;49.484;11.238;2024-03-02T04:54:39;96912.84;;;7.85;100.00
63907;BME280;50075;49.484;11.238;2024-03-02T04:57:23;96919.09;;;7.61;100.00
63907;BME280;50075;49.484;11.238;2024-03-02T04:59:49;96918.94;;;7.78;100.00
63907;BME280;50075;49.484;11.238;2024-03-02T05:02:14;96919.06;;;7.64;100.00
63907;BME280;50075;49.484;11.238;2024-03-02T05:04:39;96916.81;;;7.25;100.00
63907;BME280;50075;49.484;11.238;2024-03-02T05:07:05;96914.72;;;7.67;100.00
63907;BME280;50075;49.484;11.238;2024-03-02T05:09:30;96923.22;;;7.82;100.00
63907;BME280;50075;49.484;11.238;2024-03-02T05:11:56;96913.78;;;7.75;100.00
63907;BME280;50075;49.484;11.238;2024-03-02T05:14:39;96916.63;;;7.47;100.00
63907;BME280;50075;49.484;11.238;2024-03-02T05:17:05;96914.94;;;7.44;100.00
63907;BME280;50075;49.484;11.238;2024-03-02T05:19:30;96914.66;;;7.74;100.00
63907;BME280;50075;49.484;11.238;2024-03-02T05:21:55;96922.41;;;7.77;100.00
63907;BME280;50075;49.484;11.238;2024-03-02T05:24:21;96921.63;;;7.65;100.00
63907;BME280;50075;49.484;11.238;2024-03-02T05:26:46;96926.56;;;7.97;100.00
63907;BME280;50075;49.484;11.238;2024-03-02T05:29:11;96919.03;;;7.67;100.00
63907;BME280;50075;49.484;11.238;2024-03-02T05:31:37;96922.28;;;7.92;100.00
63907;BME280;50075;49.484;11.238;2024-03-02T05:34:02;96927.19;;;8.16;100.00
63907;BME280;50075;49.484;11.238;2024-03-02T05:36:28;96928.03;;;8.21;100.00
63907;BME280;50075;49.484;11.238;2024-03-02T05:38:53;96921.38;;;7.95;100.00
63907;BME280;50075;49.484;11.238;2024-03-02T05:41:18;96923.09;;;7.96;100.00
63907;BME280;50075;49.484;11.238;2024-03-02T05:43:44;96925.69;;;7.94;100.00
63907;BME280;50075;49.484;11.238;2024-03-02T05:46:09;96928.16;;;8.08;100.00
63907;BME280;50075;49.484;11.238;2024-03-02T05:48:34;96930.97;;;7.85;100.00
63907;BME280;50075;49.484;11.238;2024-03-02T05:51:00;96934.25;;;8.00;100.00
63907;BME280;50075;49.484;11.238;2024-03-02T05:53:25;96930.97;;;7.85;100.00
63907;BME280;50075;49.484;11.238;2024-03-02T05:55:50;96933.59;;;7.79;100.00
63907;BME280;50075;49.484;11.238;2024-03-02T05:58:20;96929.94;;;8.03;100.00
63907;BME280;50075;49.484;11.238;2024-03-02T06:00:56;96932.75;;;7.77;100.00
63907;BME280;50075;49.484;11.238;2024-03-02T06:03:22;96933.56;;;7.82;100.00
63907;BME280;50075;49.484;11.238;2024-03-02T06:05:47;96930.88;;;7.93;100.00
63907;BME280;50075;49.484;11.238;2024-03-02T06:08:14;96937.03;;;7.81;100.00
63907;BME280;50075;49.484;11.238;2024-03-02T06:10:39;96933.66;;;7.73;100.00
63907;BME280;50075;49.484;11.238;2024-03-02T06:13:05;96937.25;;;7.53;100.00
63907;BME280;50075;49.484;11.238;2024-03-02T06:15:30;96930.38;;;7.52;100.00
63907;BME280;50075;49.484;11.238;2024-03-02T06:17:56;96933.06;;;7.41;100.00
63907;BME280;50075;49.484;11.238;2024-03-02T06:20:21;96928.66;;;7.51;100.00
63907;BME280;50075;49.484;11.238;2024-03-02T06:22:46;96939.13;;;7.37;100.00
63907;BME280;50075;49.484;11.238;2024-03-02T06:25:12;96942.59;;;7.34;100.00
63907;BME280;50075;49.484;11.238;2024-03-02T06:27:38;96934.91;;;7.25;100.00
63907;BME280;50075;49.484;11.238;2024-03-02T06:30:04;96937.47;;;7.28;100.00
63907;BME280;50075;49.484;11.238;2024-03-02T06:32:30;96929.56;;;7.43;100.00
63907;BME280;50075;49.484;11.238;2024-03-02T06:34:55;96938.22;;;7.46;100.00
63907;BME280;50075;49.484;11.238;2024-03-02T06:37:20;96935.63;;;7.46;100.00
63907;BME280;50075;49.484;11.238;2024-03-02T06:39:45;96933.94;;;7.41;100.00
63907;BME280;50075;49.484;11.238;2024-03-02T06:42:11;96933.13;;;7.30;100.00
63907;BME280;50075;49.484;11.238;2024-03-02T06:44:36;96935.56;;;7.49;100.00
63907;BME280;50075;49.484;11.238;2024-03-02T06:47:01;96932.88;;;7.64;100.00
63907;BME280;50075;49.484;11.238;2024-03-02T06:49:27;96936.47;;;7.46;100.00
63907;BME280;50075;49.484;11.238;2024-03-02T06:51:52;96938.97;;;7.57;100.00
63907;BME280;50075;49.484;11.238;2024-03-02T06:54:17;96935.56;;;7.50;100.00
63907;BME280;50075;49.484;11.238;2024-03-02T06:56:43;96928.66;;;7.51;100.00
63907;BME280;50075;49.484;11.238;2024-03-02T06:59:08;96944.69;;;7.95;100.00
63907;BME280;50075;49.484;11.238;2024-03-02T07:01:33;96947.75;;;8.30;100.00
63907;BME280;50075;49.484;11.238;2024-03-02T07:03:59;96946.66;;;8.53;100.00
63907;BME280;50075;49.484;11.238;2024-03-02T07:06:25;96948.50;;;8.41;100.00
63907;BME280;50075;49.484;11.238;2024-03-02T07:08:50;96940.06;;;8.25;100.00
63907;BME280;50075;49.484;11.238;2024-03-02T07:11:16;96944.91;;;8.56;100.00
63907;BME280;50075;49.484;11.238;2024-03-02T07:13:41;96946.97;;;8.98;100.00
63907;BME280;50075;49.484;11.238;2024-03-02T07:16:06;96953.84;;;10.11;100.00
63907;BME280;50075;49.484;11.238;2024-03-02T07:19:04;96956.09;;;9.83;100.00
63907;BME280;50075;49.484;11.238;2024-03-02T07:21:29;96959.31;;;10.45;100.00
63907;BME280;50075;49.484;11.238;2024-03-02T07:23:54;96955.66;;;10.06;100.00
63907;BME280;50075;49.484;11.238;2024-03-02T07:26:20;96960.72;;;10.63;100.00
63907;BME280;50075;49.484;11.238;2024-03-02T07:28:46;96960.53;;;10.25;100.00
63907;BME280;50075;49.484;11.238;2024-03-02T07:31:13;96962.06;;;9.88;100.00
63907;BME280;50075;49.484;11.238;2024-03-02T07:33:38;96974.53;;;10.18;100.00
63907;BME280;50075;49.484;11.238;2024-03-02T07:36:03;96970.91;;;10.26;100.00
63907;BME280;50075;49.484;11.238;2024-03-02T07:38:29;96969.63;;;10.93;100.00
63907;BME280;50075;49.484;11.238;2024-03-02T07:40:55;96981.13;;;12.65;100.00
63907;BME280;50075;49.484;11.238;2024-03-02T07:43:21;96986.56;;;14.03;100.00
63907;BME280;50075;49.484;11.238;2024-03-02T07:45:47;96999.25;;;16.68;100.00
63907;BME280;50075;49.484;11.238;2024-03-02T07:48:12;96995.44;;;16.13;100.00
63907;BME280;50075;49.484;11.238;2024-03-02T07:50:38;96997.09;;;15.93;100.00
63907;BME280;50075;49.484;11.238;2024-03-02T07:53:04;96997.00;;;15.96;100.00
63907;BME280;50075;49.484;11.238;2024-03-02T07:55:30;96996.50;;;15.42;100.00
63907;BME280;50075;49.484;11.238;2024-03-02T07:57:56;97000.56;;;14.79;100.00
63907;BME280;50075;49.484;11.238;2024-03-02T08:00:22;96994.72;;;14.96;100.00
63907;BME280;50075;49.484;11.238;2024-03-02T08:02:48;96994.28;;;15.75;100.00
63907;BME280;50075;49.484;11.238;2024-03-02T08:05:14;96970.53;;;15.58;100.00
63907;BME280;50075;49.484;11.238;2024-03-02T08:07:39;96924.81;;;15.65;100.00
63907;BME280;50075;49.484;11.238;2024-03-02T08:10:06;96916.66;;;14.83;100.00
63907;BME280;50075;49.484;11.238;2024-03-02T08:12:32;96918.63;;;15.23;100.00
63907;BME280;50075;49.484;11.238;2024-03-02T08:14:57;96926.47;;;13.49;100.00
63907;BME280;50075;49.484;11.238;2024-03-02T08:17:22;96931.69;;;14.02;100.00
63907;BME280;50075;49.484;11.238;2024-03-02T08:19:48;96922.81;;;14.33;100.00
63907;BME280;50075;49.484;11.238;2024-03-02T08:22:14;96922.69;;;14.11;100.00
63907;BME280;50075;49.484;11.238;2024-03-02T08:24:40;96923.19;;;13.70;100.00
63907;BME280;50075;49.484;11.238;2024-03-02T08:27:06;96928.34;;;13.98;100.00
63907;BME280;50075;49.484;11.238;2024-03-02T08:29:31;96927.63;;;13.95;100.00
63907;BME280;50075;49.484;11.238;2024-03-02T08:31:56;96928.38;;;13.71;100.00
63907;BME280;50075;49.484;11.238;2024-03-02T08:34:22;96928.09;;;13.53;100.00
63907;BME280;50075;49.484;11.238;2024-03-02T08:36:47;96923.38;;;12.78;100.00
63907;BME280;50075;49.484;11.238;2024-03-02T08:39:13;96928.44;;;13.95;100.00
63907;BME280;50075;49.484;11.238;2024-03-02T08:41:42;96927.84;;;14.63;100.00
63907;BME280;50075;49.484;11.238;2024-03-02T08:44:09;96930.91;;;15.21;100.00
63907;BME280;50075;49.484;11.238;2024-03-02T08:46:34;96924.19;;;15.81;100.00
63907;BME280;50075;49.484;11.238;2024-03-02T08:49:00;96925.41;;;16.55;100.00
63907;BME280;50075;49.484;11.238;2024-03-02T08:51:25;96922.72;;;14.60;100.00
63907;BME280;50075;49.484;11.238;2024-03-02T08:53:50;96923.56;;;16.78;100.00
63907;BME280;50075;49.484;11.238;2024-03-02T08:56:16;96924.94;;;16.66;100.00
63907;BME280;50075;49.484;11.238;2024-03-02T08:58:41;96924.25;;;17.39;100.00
63907;BME280;50075;49.484;11.238;2024-03-02T09:01:07;96924.59;;;15.92;100.00
63907;BME280;50075;49.484;11.238;2024-03-02T09:03:34;96929.75;;;15.73;100.00
63907;BME280;50075;49.484;11.238;2024-03-02T09:06:00;96928.03;;;15.94;100.00
63907;BME280;50075;49.484;11.238;2024-03-02T09:08:25;96923.47;;;17.37;100.00
63907;BME280;50075;49.484;11.238;2024-03-02T09:10:51;96933.28;;;18.06;100.00
63907;BME280;50075;49.484;11.238;2024-03-02T09:13:16;96933.00;;;16.82;99.19
63907;BME280;50075;49.484;11.238;2024-03-02T09:15:42;96932.44;;;17.14;100.00
63907;BME280;50075;49.484;11.238;2024-03-02T09:18:07;96928.00;;;16.95;100.00
63907;BME280;50075;49.484;11.238;2024-03-02T09:20:33;96926.16;;;17.90;100.00
63907;BME280;50075;49.484;11.238;2024-03-02T09:22:58;96931.53;;;17.15;100.00
63907;BME280;50075;49.484;11.238;2024-03-02T09:25:23;96926.13;;;17.55;100.00
63907;BME280;50075;49.484;11.238;2024-03-02T09:27:49;96928.59;;;17.21;97.84
63907;BME280;50075;49.484;11.238;2024-03-02T09:30:14;96934.97;;;17.72;92.83
63907;BME280;50075;49.484;11.238;2024-03-02T09:32:39;96929.66;;;16.98;100.00
63907;BME280;50075;49.484;11.238;2024-03-02T09:35:06;96927.88;;;17.37;100.00
63907;BME280;50075;49.484;11.238;2024-03-02T09:37:31;96925.91;;;17.23;97.92
63907;BME280;50075;49.484;11.238;2024-03-02T09:39:56;96929.31;;;17.05;100.00
63907;BME280;50075;49.484;11.238;2024-03-02T09:42:22;96916.72;;;16.55;100.00
63907;BME280;50075;49.484;11.238;2024-03-02T09:44:48;96916.66;;;17.33;100.00
63907;BME280;50075;49.484;11.238;2024-03-02T09:47:13;96926.25;;;16.36;100.00
63907;BME280;50075;49.484;11.238;2024-03-02T09:49:39;96919.69;;;16.85;100.00
63907;BME280;50075;49.484;11.238;2024-03-02T09:52:05;96919.59;;;16.48;100.00
63907;BME280;50075;49.484;11.238;2024-03-02T09:54:32;96909.50;;;16.98;100.00
63907;BME280;50075;49.484;11.238;2024-03-02T09:56:57;96912.84;;;17.76;88.88
63907;BME280;50075;49.484;11.238;2024-03-02T09:59:22;96903.59;;;17.86;86.15
63907;BME280;50075;49.484;11.238;2024-03-02T10:01:57;96901.63;;;17.72;93.03
63907;BME280;50075;49.484;11.238;2024-03-02T10:04:25;96897.84;;;17.60;88.98
63907;BME280;50075;49.484;11.238;2024-03-02T10:06:51;96910.09;;;17.05;94.05
63907;BME280;50075;49.484;11.238;2024-03-02T10:09:27;96906.47;;;17.08;92.49
63907;BME280;50075;49.484;11.238;2024-03-02T10:12:03;96897.22;;;15.99;100.00
63907;BME280;50075;49.484;11.238;2024-03-02T10:14:29;96904.06;;;15.81;100.00
63907;BME280;50075;49.484;11.238;2024-03-02T10:17:02;96909.13;;;16.87;100.00
63907;BME280;50075;49.484;11.238;2024-03-02T10:19:27;96902.63;;;17.15;100.00
63907;BME280;50075;49.484;11.238;2024-03-02T10:21:57;96894.31;;;18.14;100.00
63907;BME280;50075;49.484;11.238;2024-03-02T10:24:23;96892.25;;;18.71;100.00
63907;BME280;50075;49.484;11.238;2024-03-02T10:26:50;96890.81;;;18.14;90.69
63907;BME280;50075;49.484;11.238;2024-03-02T10:29:15;96895.91;;;17.99;90.51
63907;BME280;50075;49.484;11.238;2024-03-02T10:31:42;96892.41;;;17.81;100.00
63907;BME280;50075;49.484;11.238;2024-03-02T10:34:09;96895.47;;;18.08;100.00
63907;BME280;50075;49.484;11.238;2024-03-02T10:36:35;96894.50;;;16.81;100.00
63907;BME280;50075;49.484;11.238;2024-03-02T10:39:04;96893.59;;;16.63;98.75
63907;BME280;50075;49.484;11.238;2024-03-02T10:41:34;96895.66;;;16.16;100.00
63907;BME280;50075;49.484;11.238;2024-03-02T10:44:02;96893.91;;;15.96;100.00
63907;BME280;50075;49.484;11.238;2024-03-02T10:46:29;96899.16;;;15.73;100.00
63907;BME280;50075;49.484;11.238;2024-03-02T10:49:00;96903.53;;;15.30;100.00
63907;BME280;50075;49.484;11.238;2024-03-02T10:51:30;96908.31;;;15.63;100.00
63907;BME280;50075;49.484;11.238;2024-03-02T10:54:02;96890.72;;;15.00;100.00
63907;BME280;50075;49.484;11.238;2024-03-02T10:56:32;96897.31;;;15.10;100.00
63907;BME280;50075;49.484;11.238;2024-03-02T11:01:56;96893.22;;;15.25;100.00
63907;BME280;50075;49.484;11.238;2024-03-02T11:04:24;96882.56;;;14.85;100.00
63907;BME280;50075;49.484;11.238;2024-03-02T11:06:51;96883.72;;;14.78;100.00
63907;BME280;50075;49.484;11.238;2024-03-02T11:09:20;96890.59;;;14.80;100.00
63907;BME280;50075;49.484;11.238;2024-03-02T11:11:52;96874.59;;;15.10;100.00
63907;BME280;50075;49.484;11.238;2024-03-02T11:14:21;96870.81;;;14.95;100.00
63907;BME280;50075;49.484;11.238;2024-03-02T11:16:49;96875.81;;;15.46;100.00
63907;BME280;50075;49.484;11.238;2024-03-02T11:19:16;96887.78;;;14.37;100.00
63907;BME280;50075;49.484;11.238;2024-03-02T11:21:42;96883.66;;;14.54;100.00
63907;BME280;50075;49.484;11.238;2024-03-02T11:24:37;96886.63;;;15.80;100.00
63907;BME280;50075;49.484;11.238;2024-03-02T11:27:03;96874.97;;;17.25;97.54
63907;BME280;50075;49.484;11.238;2024-03-02T11:34:45;96888.34;;;14.93;100.00
63907;BME280;50075;49.484;11.238;2024-03-02T11:37:12;96870.19;;;14.65;100.00
63907;BME280;50075;49.484;11.238;2024-03-02T11:39:39;96881.41;;;14.44;100.00
63907;BME280;50075;49.484;11.238;2024-03-02T11:42:08;96859.91;;;15.06;100.00
63907;BME280;50075;49.484;11.238;2024-03-02T11:44:37;96859.91;;;15.93;100.00
63907;BME280;50075;49.484;11.238;2024-03-02T11:47:08;96870.78;;;15.83;98.90
63907;BME280;50075;49.484;11.238;2024-03-02T11:49:50;96851.31;;;15.25;100.00
63907;BME280;50075;49.484;11.238;2024-03-02T11:52:17;96849.19;;;14.66;100.00
63907;BME280;50075;49.484;11.238;2024-03-02T11:54:44;96848.75;;;14.79;100.00
63907;BME280;50075;49.484;11.238;2024-03-02T11:57:15;96850.22;;;14.14;100.00
63907;BME280;50075;49.484;11.238;2024-03-02T11:59:41;96844.84;;;13.93;100.00
63907;BME280;50075;49.484;11.238;2024-03-02T12:02:06;96845.72;;;13.94;100.00
63907;BME280;50075;49.484;11.238;2024-03-02T12:04:32;96839.63;;;14.19;100.00
63907;BME280;50075;49.484;11.238;2024-03-02T12:07:00;96842.75;;;14.29;100.00
63907;BME280;50075;49.484;11.238;2024-03-02T12:09:29;96838.56;;;14.47;100.00
63907;BME280;50075;49.484;11.238;2024-03-02T12:12:05;96840.34;;;13.99;100.00
63907;BME280;50075;49.484;11.238;2024-03-02T12:14:31;96834.16;;;14.01;100.00
63907;BME280;50075;49.484;11.238;2024-03-02T12:16:57;96838.75;;;13.95;100.00
63907;BME280;50075;49.484;11.238;2024-03-02T12:19:24;96829.69;;;13.79;100.00
63907;BME280;50075;49.484;11.238;2024-03-02T12:21:50;96839.22;;;13.55;100.00
63907;BME280;50075;49.484;11.238;2024-03-02T12:24:16;96828.66;;;13.58;100.00
63907;BME280;50075;49.484;11.238;2024-03-02T12:26:41;96830.84;;;13.71;100.00
63907;BME280;50075;49.484;11.238;2024-03-02T12:29:07;96831.88;;;13.39;100.00
63907;BME280;50075;49.484;11.238;2024-03-02T12:31:32;96835.19;;;13.18;100.00
63907;BME280;50075;49.484;11.238;2024-03-02T12:33:58;96825.75;;;12.85;100.00
63907;BME280;50075;49.484;11.238;2024-03-02T12:36:24;96830.69;;;12.66;100.00
63907;BME280;50075;49.484;11.238;2024-03-02T12:38:53;96822.91;;;12.64;100.00
63907;BME280;50075;49.484;11.238;2024-03-02T12:41:18;96826.19;;;12.71;100.00
63907;BME280;50075;49.484;11.238;2024-03-02T12:43:43;96819.31;;;12.68;100.00
63907;BME280;50075;49.484;11.238;2024-03-02T12:46:09;96817.94;;;12.56;100.00
63907;BME280;50075;49.484;11.238;2024-03-02T12:48:35;96804.06;;;12.83;100.00
63907;BME280;50075;49.484;11.238;2024-03-02T12:51:01;96812.97;;;12.77;100.00
63907;BME280;50075;49.484;11.238;2024-03-02T12:53:27;96817.41;;;12.73;100.00